createdAt,value
2018-12-16T00:01:46.830Z,68.71
2018-12-16T00:06:42.849Z,68.67
2018-12-16T00:11:38.880Z,68.55
2018-12-16T00:16:34.983Z,68.50
2018-12-16T00:21:31.133Z,68.76
2018-12-16T00:26:32.026Z,68.60
2018-12-16T00:31:28.052Z,68.67
2018-12-16T00:36:24.068Z,68.95
2018-12-16T00:41:20.129Z,69.19
2018-12-16T00:46:16.274Z,69.01
2018-12-16T00:51:12.285Z,68.96
2018-12-16T00:56:08.321Z,68.86
2018-12-16T01:01:04.443Z,69.36
2018-12-16T01:06:00.458Z,68.77
2018-12-16T01:10:56.599Z,69.02
2018-12-16T01:15:52.615Z,68.95
2018-12-16T01:20:48.675Z,69.01
2018-12-16T01:25:44.789Z,68.97
2018-12-16T01:30:40.793Z,68.99
2018-12-16T01:35:36.809Z,68.60
2018-12-16T01:40:32.849Z,68.70
2018-12-16T01:45:28.849Z,68.77
2018-12-16T01:50:24.865Z,68.73
2018-12-16T01:55:20.932Z,68.99
2018-12-16T02:00:16.964Z,68.70
2018-12-16T02:05:12.997Z,68.63
2018-12-16T02:10:09.247Z,68.52
2018-12-16T02:15:05.373Z,68.52
2018-12-16T02:20:02.321Z,68.79
2018-12-16T02:24:58.394Z,68.37
2018-12-16T02:29:54.401Z,68.71
2018-12-16T02:34:50.419Z,68.47
2018-12-16T02:39:46.437Z,68.45
2018-12-16T02:44:42.461Z,68.59
2018-12-16T02:49:38.479Z,68.84
2018-12-16T02:54:34.526Z,68.66
2018-12-16T02:59:30.826Z,68.28
2018-12-16T03:04:27.164Z,68.57
2018-12-16T03:09:23.189Z,68.53
2018-12-16T03:14:19.193Z,68.16
2018-12-16T03:19:15.254Z,68.67
2018-12-16T03:24:11.274Z,68.80
2018-12-16T03:29:07.284Z,68.39
2018-12-16T03:34:03.311Z,68.58
2018-12-16T03:38:59.420Z,68.62
2018-12-16T03:43:55.440Z,68.63
2018-12-16T03:48:51.472Z,68.24
2018-12-16T03:53:47.490Z,68.62
2018-12-16T03:58:55.970Z,68.68
2018-12-16T04:03:52.013Z,68.64
2018-12-16T04:08:48.026Z,68.44
2018-12-16T04:13:44.031Z,68.17
2018-12-16T04:18:40.049Z,68.08
2018-12-16T04:23:36.065Z,68.29
2018-12-16T04:28:32.956Z,68.42
2018-12-16T04:33:28.966Z,68.27
2018-12-16T04:38:24.994Z,68.45
2018-12-16T04:43:21.025Z,67.97
2018-12-16T04:48:17.078Z,68.47
2018-12-16T04:53:13.162Z,68.20
2018-12-16T04:58:10.014Z,67.93
2018-12-16T05:03:06.036Z,68.37
2018-12-16T05:08:02.233Z,68.18
2018-12-16T05:12:58.268Z,68.00
2018-12-16T05:17:54.281Z,68.00
2018-12-16T05:22:50.309Z,68.25
2018-12-16T05:27:48.336Z,68.00
2018-12-16T05:32:44.442Z,67.76
2018-12-16T05:37:40.457Z,67.80
2018-12-16T05:42:36.464Z,67.80
2018-12-16T05:47:32.475Z,68.03
2018-12-16T05:52:28.487Z,67.62
2018-12-16T05:57:25.870Z,67.27
2018-12-16T06:02:21.904Z,67.42
2018-12-16T06:07:17.915Z,67.19
2018-12-16T06:12:14.073Z,67.28
2018-12-16T06:17:10.057Z,67.04
2018-12-16T06:22:06.062Z,67.11
2018-12-16T06:27:02.080Z,66.83
2018-12-16T06:31:58.094Z,66.58
2018-12-16T06:36:54.185Z,67.10
2018-12-16T06:41:50.226Z,67.16
2018-12-16T06:46:46.248Z,67.00
2018-12-16T06:51:42.266Z,67.13
2018-12-16T06:56:38.273Z,67.40
2018-12-16T07:01:34.398Z,67.22
2018-12-16T07:06:30.444Z,68.10
2018-12-16T07:11:26.498Z,69.18
2018-12-16T07:16:22.564Z,70.90
2018-12-16T07:21:18.605Z,73.45
2018-12-16T07:26:14.653Z,75.15
2018-12-16T07:31:10.725Z,76.82
2018-12-16T07:36:06.810Z,78.49
2018-12-16T07:41:03.011Z,79.29
2018-12-16T07:45:59.075Z,80.49
2018-12-16T07:50:55.193Z,82.03
2018-12-16T07:55:51.271Z,83.07
2018-12-16T08:00:47.479Z,84.08
2018-12-16T08:05:43.531Z,84.91
2018-12-16T08:10:39.691Z,85.03
2018-12-16T08:15:35.745Z,85.02
2018-12-16T08:20:31.783Z,85.23
2018-12-16T08:25:27.861Z,85.38
2018-12-16T08:30:24.129Z,85.13
2018-12-16T08:35:20.387Z,84.61
2018-12-16T08:40:16.491Z,84.46
2018-12-16T08:45:12.518Z,84.69
2018-12-16T08:50:08.580Z,84.13
2018-12-16T08:55:04.641Z,84.68
2018-12-16T09:00:00.725Z,85.00
2018-12-16T09:04:56.795Z,84.92
2018-12-16T09:09:52.877Z,85.21
2018-12-16T09:14:48.926Z,85.18
2018-12-16T09:19:44.982Z,85.41
2018-12-16T09:24:41.025Z,85.45
2018-12-16T09:29:37.053Z,86.08
2018-12-16T09:34:33.106Z,86.13
2018-12-16T09:39:29.193Z,85.81
2018-12-16T09:44:25.273Z,85.95
2018-12-16T09:49:21.309Z,85.68
2018-12-16T09:54:17.381Z,85.77
2018-12-16T09:59:14.074Z,86.50
2018-12-16T10:04:10.721Z,87.05
2018-12-16T10:09:06.976Z,86.95
2018-12-16T10:19:25.967Z,86.47
2018-12-16T10:24:23.198Z,85.74
2018-12-16T10:29:19.317Z,84.65
2018-12-16T10:34:15.350Z,84.10
2018-12-16T10:39:11.495Z,83.71
2018-12-16T10:44:07.542Z,83.31
2018-12-16T10:49:05.002Z,83.29
2018-12-16T10:54:01.293Z,83.13
2018-12-16T10:58:57.304Z,82.64
2018-12-16T11:03:53.326Z,83.00
2018-12-16T11:08:49.684Z,82.80
2018-12-16T11:13:45.703Z,83.37
2018-12-16T11:18:41.733Z,82.95
2018-12-16T11:23:37.799Z,82.77
2018-12-16T11:28:34.503Z,81.91
2018-12-16T11:33:30.761Z,82.25
2018-12-16T11:43:54.335Z,82.34
2018-12-16T11:48:50.579Z,82.14
2018-12-16T11:53:46.803Z,82.53
2018-12-16T11:58:43.707Z,82.16
2018-12-16T12:03:39.827Z,81.73
2018-12-16T12:08:36.135Z,81.53
2018-12-16T12:13:32.360Z,81.61
2018-12-16T12:18:28.600Z,81.22
2018-12-16T12:23:24.850Z,81.26
2018-12-16T12:28:21.834Z,81.00
2018-12-16T12:33:18.215Z,81.33
2018-12-16T12:38:14.404Z,80.30
2018-12-16T12:43:10.769Z,79.97
2018-12-16T12:48:07.033Z,79.86
2018-12-16T12:53:03.976Z,80.00
2018-12-16T12:58:02.150Z,79.89
2018-12-16T13:02:58.446Z,80.21
2018-12-16T13:07:54.587Z,81.44
2018-12-16T13:12:50.748Z,81.80
2018-12-16T13:17:47.007Z,81.71
2018-12-16T13:22:43.122Z,81.88
2018-12-16T13:27:39.277Z,82.44
2018-12-16T13:32:35.373Z,81.50
2018-12-16T13:37:31.531Z,81.59
2018-12-16T13:42:28.083Z,82.39
2018-12-16T13:47:24.253Z,83.13
2018-12-16T13:52:20.333Z,83.04
2018-12-16T13:57:16.526Z,83.73
2018-12-16T14:02:12.593Z,84.66
2018-12-16T14:07:08.678Z,84.06
2018-12-16T14:12:04.873Z,84.49
2018-12-16T14:17:00.983Z,84.78
2018-12-16T14:21:57.197Z,84.98
2018-12-16T14:26:53.356Z,84.94
2018-12-16T14:31:49.430Z,85.26
2018-12-16T14:36:45.517Z,85.13
2018-12-16T14:41:41.764Z,85.84
2018-12-16T14:46:38.885Z,85.87
2018-12-16T14:51:34.951Z,84.85
2018-12-16T14:56:31.035Z,85.91
2018-12-16T15:01:27.189Z,85.99
2018-12-16T15:06:23.298Z,86.29
2018-12-16T15:11:19.375Z,85.99
2018-12-16T15:16:15.469Z,85.16
2018-12-16T15:21:11.550Z,86.52
2018-12-16T15:26:07.746Z,86.46
2018-12-16T15:31:03.838Z,86.89
2018-12-16T15:36:00.050Z,87.58
2018-12-16T15:40:56.298Z,86.71
2018-12-16T15:45:52.385Z,87.37
2018-12-16T15:50:48.429Z,87.47
2018-12-16T15:55:44.474Z,87.34
2018-12-16T16:00:40.514Z,87.87
2018-12-16T16:05:36.625Z,87.49
2018-12-16T16:10:32.793Z,86.65
2018-12-16T16:15:28.836Z,87.60
2018-12-16T16:20:24.897Z,87.29
2018-12-16T16:25:27.985Z,87.70
2018-12-16T16:30:24.036Z,87.91
2018-12-16T16:35:20.137Z,87.38
2018-12-16T16:40:16.528Z,87.14
2018-12-16T16:45:12.601Z,87.22
2018-12-16T16:50:08.663Z,87.91
2018-12-16T16:55:04.933Z,88.33
2018-12-16T17:00:00.973Z,87.03
2018-12-16T17:04:57.107Z,87.12
2018-12-16T17:09:53.255Z,87.88
2018-12-16T17:14:49.395Z,88.38
2018-12-16T17:19:45.533Z,87.97
2018-12-16T17:24:41.665Z,88.68
2018-12-16T17:29:38.397Z,89.19
2018-12-16T17:34:34.488Z,88.64
2018-12-16T17:39:32.521Z,87.79
2018-12-16T17:44:28.583Z,87.54
2018-12-16T17:49:25.778Z,88.41
2018-12-16T17:54:21.834Z,88.33
2018-12-16T17:59:18.491Z,88.10
2018-12-16T18:04:16.714Z,88.20
2018-12-16T18:09:14.645Z,87.92
2018-12-16T18:14:11.285Z,87.66
2018-12-16T18:19:07.465Z,87.89
2018-12-16T18:24:05.458Z,88.30
2018-12-16T18:29:01.693Z,88.38
2018-12-16T18:33:58.285Z,89.12
2018-12-16T18:38:54.410Z,89.16
2018-12-16T18:43:50.489Z,88.78
2018-12-16T18:48:46.528Z,88.57
2018-12-16T18:53:42.562Z,89.01
2018-12-16T18:58:38.608Z,88.91
2018-12-16T19:03:34.894Z,89.08
2018-12-16T19:08:31.050Z,89.40
2018-12-16T19:13:27.088Z,89.20
2018-12-16T19:18:24.945Z,89.11
2018-12-16T19:23:21.135Z,88.62
2018-12-16T19:28:17.888Z,88.71
2018-12-16T19:33:13.993Z,88.75
2018-12-16T19:38:10.033Z,89.06
2018-12-16T19:43:06.087Z,88.76
2018-12-16T19:48:02.135Z,88.88
2018-12-16T19:52:58.176Z,89.08
2018-12-16T19:57:56.894Z,88.81
2018-12-16T20:02:53.002Z,88.57
2018-12-16T20:07:49.296Z,88.67
2018-12-16T20:12:45.343Z,88.49
2018-12-16T20:17:41.403Z,88.81
2018-12-16T20:22:37.515Z,89.04
2018-12-16T20:27:33.646Z,88.91
2018-12-16T20:32:29.708Z,88.95
2018-12-16T20:37:25.750Z,89.48
2018-12-16T20:42:21.831Z,89.91
2018-12-16T20:47:17.932Z,89.42
2018-12-16T20:52:14.093Z,89.42
2018-12-16T20:57:10.150Z,89.59
2018-12-16T21:02:06.286Z,89.34
2018-12-16T21:07:02.439Z,89.26
2018-12-16T21:11:59.873Z,89.76
2018-12-16T21:17:01.932Z,89.72
2018-12-16T21:21:57.999Z,90.36
2018-12-16T21:26:54.058Z,90.24
2018-12-16T21:31:50.106Z,90.58
2018-12-16T21:36:46.177Z,90.71
2018-12-16T21:41:42.258Z,90.41
2018-12-16T21:46:38.307Z,90.16
2018-12-16T21:51:34.377Z,89.57
2018-12-16T21:56:30.864Z,90.43
2018-12-16T22:01:26.966Z,90.22
2018-12-16T22:06:23.019Z,90.52
2018-12-16T22:11:19.067Z,91.00
2018-12-16T22:16:15.225Z,91.38
2018-12-16T22:21:11.261Z,91.39
2018-12-16T22:26:07.297Z,91.23
2018-12-16T22:31:03.339Z,91.81
2018-12-16T22:35:59.370Z,91.84
2018-12-16T22:40:55.475Z,92.71
2018-12-16T22:45:52.583Z,92.88
2018-12-16T22:50:48.622Z,93.08
2018-12-16T22:55:44.662Z,92.98
2018-12-16T23:06:14.470Z,92.77
2018-12-16T23:11:10.487Z,92.92
2018-12-16T23:16:06.625Z,92.42
2018-12-16T23:21:05.119Z,92.98
2018-12-16T23:26:01.134Z,92.53
2018-12-16T23:30:57.270Z,92.51
2018-12-16T23:35:53.266Z,92.46
2018-12-16T23:40:49.289Z,91.51
2018-12-16T23:45:45.301Z,91.48
2018-12-16T23:50:41.317Z,91.04
2018-12-16T23:55:37.344Z,91.63
